sensor_id;sensor_type;location;lat;lon;timestamp;pressure;altitude;pressure_sealevel;temperature;humidity
53719;BME280;39616;48.872;9.390;2024-03-02T00:02:25;97225.38;;;3.94;100.00
53719;BME280;39616;48.872;9.390;2024-03-02T00:04:56;97226.16;;;3.95;100.00
53719;BME280;39616;48.872;9.390;2024-03-02T00:07:26;97218.88;;;4.00;100.00
53719;BME280;39616;48.872;9.390;2024-03-02T00:09:56;97224.75;;;4.02;100.00
53719;BME280;39616;48.872;9.390;2024-03-02T00:12:26;97212.63;;;4.10;100.00
53719;BME280;39616;48.872;9.390;2024-03-02T00:14:57;97217.38;;;4.18;100.00
53719;BME280;39616;48.872;9.390;2024-03-02T00:17:29;97218.19;;;4.19;100.00
53719;BME280;39616;48.872;9.390;2024-03-02T00:19:59;97212.53;;;4.20;100.00
53719;BME280;39616;48.872;9.390;2024-03-02T00:22:30;97217.09;;;4.20;100.00
53719;BME280;39616;48.872;9.390;2024-03-02T00:25:00;97211.16;;;4.23;100.00
53719;BME280;39616;48.872;9.390;2024-03-02T00:27:30;97218.41;;;4.22;100.00
53719;BME280;39616;48.872;9.390;2024-03-02T00:30:01;97220.31;;;4.22;100.00
53719;BME280;39616;48.872;9.390;2024-03-02T00:32:36;97222.19;;;4.21;100.00
53719;BME280;39616;48.872;9.390;2024-03-02T00:35:06;97220.84;;;4.24;100.00
53719;BME280;39616;48.872;9.390;2024-03-02T00:37:36;97219.19;;;4.28;100.00
53719;BME280;39616;48.872;9.390;2024-03-02T00:40:07;97222.66;;;4.28;100.00
53719;BME280;39616;48.872;9.390;2024-03-02T00:42:38;97227.22;;;4.28;100.00
53719;BME280;39616;48.872;9.390;2024-03-02T00:45:08;97225.09;;;4.25;100.00
53719;BME280;39616;48.872;9.390;2024-03-02T00:47:39;97223.78;;;4.22;100.00
53719;BME280;39616;48.872;9.390;2024-03-02T00:50:09;97228.81;;;4.29;100.00
53719;BME280;39616;48.872;9.390;2024-03-02T00:52:40;97218.03;;;4.34;100.00
53719;BME280;39616;48.872;9.390;2024-03-02T00:55:11;97221.19;;;4.41;100.00
53719;BME280;39616;48.872;9.390;2024-03-02T00:57:42;97221.72;;;4.43;100.00
53719;BME280;39616;48.872;9.390;2024-03-02T01:00:14;97227.88;;;4.44;100.00
53719;BME280;39616;48.872;9.390;2024-03-02T01:02:45;97236.25;;;4.37;100.00
53719;BME280;39616;48.872;9.390;2024-03-02T01:05:16;97227.31;;;4.47;100.00
53719;BME280;39616;48.872;9.390;2024-03-02T01:07:46;97220.38;;;4.46;100.00
53719;BME280;39616;48.872;9.390;2024-03-02T01:10:17;97216.38;;;4.38;100.00
53719;BME280;39616;48.872;9.390;2024-03-02T01:12:47;97220.22;;;4.32;100.00
53719;BME280;39616;48.872;9.390;2024-03-02T01:15:18;97222.38;;;4.30;100.00
53719;BME280;39616;48.872;9.390;2024-03-02T01:17:48;97225.38;;;4.23;100.00
53719;BME280;39616;48.872;9.390;2024-03-02T01:20:18;97229.44;;;4.21;100.00
53719;BME280;39616;48.872;9.390;2024-03-02T01:22:49;97220.31;;;4.22;100.00
53719;BME280;39616;48.872;9.390;2024-03-02T01:25:19;97215.47;;;4.24;100.00
53719;BME280;39616;48.872;9.390;2024-03-02T01:27:49;97221.06;;;4.27;100.00
53719;BME280;39616;48.872;9.390;2024-03-02T01:30:19;97219.13;;;4.33;100.00
53719;BME280;39616;48.872;9.390;2024-03-02T01:32:50;97211.00;;;4.38;100.00
53719;BME280;39616;48.872;9.390;2024-03-02T01:35:22;97218.47;;;4.46;100.00
53719;BME280;39616;48.872;9.390;2024-03-02T01:37:53;97212.78;;;4.53;100.00
53719;BME280;39616;48.872;9.390;2024-03-02T01:40:24;97216.75;;;4.55;100.00
53719;BME280;39616;48.872;9.390;2024-03-02T01:42:58;97219.44;;;4.55;100.00
53719;BME280;39616;48.872;9.390;2024-03-02T01:45:29;97222.13;;;4.55;100.00
53719;BME280;39616;48.872;9.390;2024-03-02T01:47:59;97221.09;;;4.51;100.00
53719;BME280;39616;48.872;9.390;2024-03-02T01:50:31;97219.28;;;4.47;100.00
53719;BME280;39616;48.872;9.390;2024-03-02T01:53:02;97211.06;;;4.33;100.00
53719;BME280;39616;48.872;9.390;2024-03-02T01:55:35;97218.63;;;4.31;100.00
53719;BME280;39616;48.872;9.390;2024-03-02T01:58:06;97215.72;;;4.22;100.00
53719;BME280;39616;48.872;9.390;2024-03-02T02:00:36;97218.72;;;4.21;100.00
53719;BME280;39616;48.872;9.390;2024-03-02T02:03:07;97221.66;;;4.19;100.00
53719;BME280;39616;48.872;9.390;2024-03-02T02:05:37;97219.56;;;4.16;100.00
53719;BME280;39616;48.872;9.390;2024-03-02T02:08:07;97215.31;;;4.10;100.00
53719;BME280;39616;48.872;9.390;2024-03-02T02:10:38;97218.59;;;4.02;100.00
53719;BME280;39616;48.872;9.390;2024-03-02T02:13:08;97216.47;;;3.99;100.00
53719;BME280;39616;48.872;9.390;2024-03-02T02:15:39;97217.41;;;3.84;100.00
53719;BME280;39616;48.872;9.390;2024-03-02T02:18:09;97205.41;;;3.71;100.00
53719;BME280;39616;48.872;9.390;2024-03-02T02:20:39;97204.09;;;3.69;100.00
53719;BME280;39616;48.872;9.390;2024-03-02T02:23:09;97198.69;;;3.74;100.00
53719;BME280;39616;48.872;9.390;2024-03-02T02:25:40;97205.16;;;3.68;100.00
53719;BME280;39616;48.872;9.390;2024-03-02T02:28:10;97200.94;;;3.61;100.00
53719;BME280;39616;48.872;9.390;2024-03-02T02:30:40;97190.75;;;3.58;100.00
53719;BME280;39616;48.872;9.390;2024-03-02T02:33:11;97197.22;;;3.57;100.00
53719;BME280;39616;48.872;9.390;2024-03-02T02:35:41;97192.41;;;3.54;100.00
53719;BME280;39616;48.872;9.390;2024-03-02T02:38:11;97187.06;;;3.49;100.00
53719;BME280;39616;48.872;9.390;2024-03-02T02:40:42;97189.47;;;3.46;100.00
53719;BME280;39616;48.872;9.390;2024-03-02T02:43:12;97189.78;;;3.44;100.00
53719;BME280;39616;48.872;9.390;2024-03-02T02:45:42;97186.31;;;3.38;100.00
53719;BME280;39616;48.872;9.390;2024-03-02T02:48:13;97187.38;;;3.43;100.00
53719;BME280;39616;48.872;9.390;2024-03-02T02:50:43;97180.47;;;3.31;100.00
53719;BME280;39616;48.872;9.390;2024-03-02T02:53:13;97182.41;;;3.21;100.00
53719;BME280;39616;48.872;9.390;2024-03-02T02:55:44;97176.81;;;3.12;100.00
53719;BME280;39616;48.872;9.390;2024-03-02T02:58:14;97177.38;;;3.09;100.00
53719;BME280;39616;48.872;9.390;2024-03-02T03:00:47;97174.44;;;3.05;100.00
53719;BME280;39616;48.872;9.390;2024-03-02T03:03:17;97169.91;;;3.06;100.00
53719;BME280;39616;48.872;9.390;2024-03-02T03:05:48;97164.25;;;3.07;100.00
53719;BME280;39616;48.872;9.390;2024-03-02T03:08:18;97166.44;;;3.00;100.00
53719;BME280;39616;48.872;9.390;2024-03-02T03:10:49;97173.44;;;2.96;100.00
53719;BME280;39616;48.872;9.390;2024-03-02T03:13:19;97170.22;;;2.94;100.00
53719;BME280;39616;48.872;9.390;2024-03-02T03:15:50;97169.16;;;2.90;100.00
53719;BME280;39616;48.872;9.390;2024-03-02T03:18:20;97174.25;;;2.86;100.00
53719;BME280;39616;48.872;9.390;2024-03-02T03:20:50;97177.19;;;2.90;100.00
53719;BME280;39616;48.872;9.390;2024-03-02T03:23:20;97188.69;;;2.96;100.00
53719;BME280;39616;48.872;9.390;2024-03-02T03:25:51;97178.78;;;2.96;100.00
53719;BME280;39616;48.872;9.390;2024-03-02T03:28:21;97183.84;;;2.98;100.00
53719;BME280;39616;48.872;9.390;2024-03-02T03:30:51;97176.66;;;2.93;100.00
53719;BME280;39616;48.872;9.390;2024-03-02T03:33:22;97175.31;;;2.90;100.00
53719;BME280;39616;48.872;9.390;2024-03-02T03:35:52;97183.63;;;2.89;100.00
53719;BME280;39616;48.872;9.390;2024-03-02T03:38:23;97179.38;;;2.83;100.00
53719;BME280;39616;48.872;9.390;2024-03-02T03:40:53;97185.28;;;2.75;100.00
53719;BME280;39616;48.872;9.390;2024-03-02T03:43:24;97178.88;;;2.71;100.00
53719;BME280;39616;48.872;9.390;2024-03-02T03:45:54;97186.13;;;2.70;100.00
53719;BME280;39616;48.872;9.390;2024-03-02T03:48:24;97182.66;;;2.70;100.00
53719;BME280;39616;48.872;9.390;2024-03-02T03:51:00;97193.09;;;2.66;100.00
53719;BME280;39616;48.872;9.390;2024-03-02T03:53:30;97190.97;;;2.58;100.00
53719;BME280;39616;48.872;9.390;2024-03-02T03:56:01;97184.84;;;2.52;100.00
53719;BME280;39616;48.872;9.390;2024-03-02T03:58:31;97185.66;;;2.48;100.00
53719;BME280;39616;48.872;9.390;2024-03-02T04:01:02;97182.19;;;2.42;100.00
53719;BME280;39616;48.872;9.390;2024-03-02T04:03:32;97180.28;;;2.42;100.00
53719;BME280;39616;48.872;9.390;2024-03-02T04:06:03;97184.31;;;2.35;100.00
53719;BME280;39616;48.872;9.390;2024-03-02T04:08:33;97181.13;;;2.28;100.00
53719;BME280;39616;48.872;9.390;2024-03-02T04:11:03;97176.34;;;2.25;100.00
53719;BME280;39616;48.872;9.390;2024-03-02T04:13:34;97182.47;;;2.30;100.00
53719;BME280;39616;48.872;9.390;2024-03-02T04:16:05;97180.06;;;2.34;100.00
53719;BME280;39616;48.872;9.390;2024-03-02T04:18:35;97187.81;;;2.40;100.00
53719;BME280;39616;48.872;9.390;2024-03-02T04:21:06;97175.47;;;2.45;100.00
53719;BME280;39616;48.872;9.390;2024-03-02T04:23:36;97185.09;;;2.46;100.00
53719;BME280;39616;48.872;9.390;2024-03-02T04:26:08;97180.03;;;2.44;100.00
53719;BME280;39616;48.872;9.390;2024-03-02T04:28:39;97177.63;;;2.42;100.00
53719;BME280;39616;48.872;9.390;2024-03-02T04:31:09;97180.03;;;2.39;100.00
53719;BME280;39616;48.872;9.390;2024-03-02T04:33:39;97176.56;;;2.38;100.00
53719;BME280;39616;48.872;9.390;2024-03-02T04:36:09;97184.31;;;2.35;100.00
53719;BME280;39616;48.872;9.390;2024-03-02T04:38:40;97185.66;;;2.37;100.00
53719;BME280;39616;48.872;9.390;2024-03-02T04:41:10;97181.94;;;2.33;100.00
53719;BME280;39616;48.872;9.390;2024-03-02T04:43:40;97191.25;;;2.51;100.00
53719;BME280;39616;48.872;9.390;2024-03-02T04:46:11;97186.63;;;2.77;100.00
53719;BME280;39616;48.872;9.390;2024-03-02T04:48:41;97192.47;;;2.89;100.00
53719;BME280;39616;48.872;9.390;2024-03-02T04:51:11;97184.97;;;2.92;100.00
53719;BME280;39616;48.872;9.390;2024-03-02T04:53:43;97185.50;;;2.88;100.00
53719;BME280;39616;48.872;9.390;2024-03-02T04:56:13;97183.66;;;2.79;100.00
53719;BME280;39616;48.872;9.390;2024-03-02T04:59:09;97188.31;;;2.42;100.00
53719;BME280;39616;48.872;9.390;2024-03-02T05:01:39;97187.84;;;2.25;100.00
53719;BME280;39616;48.872;9.390;2024-03-02T05:04:09;97191.84;;;2.12;100.00
53719;BME280;39616;48.872;9.390;2024-03-02T05:06:41;97189.19;;;2.12;100.00
53719;BME280;39616;48.872;9.390;2024-03-02T05:09:12;97192.94;;;2.11;100.00
53719;BME280;39616;48.872;9.390;2024-03-02T05:11:42;97192.41;;;2.14;100.00
53719;BME280;39616;48.872;9.390;2024-03-02T05:14:29;97189.19;;;2.17;100.00
53719;BME280;39616;48.872;9.390;2024-03-02T05:16:59;97189.72;;;2.14;100.00
53719;BME280;39616;48.872;9.390;2024-03-02T05:19:29;97182.50;;;2.10;100.00
53719;BME280;39616;48.872;9.390;2024-03-02T05:22:00;97177.72;;;2.07;100.00
53719;BME280;39616;48.872;9.390;2024-03-02T05:24:30;97184.66;;;2.08;100.00
53719;BME280;39616;48.872;9.390;2024-03-02T05:27:00;97183.06;;;2.07;100.00
53719;BME280;39616;48.872;9.390;2024-03-02T05:29:31;97185.19;;;2.05;100.00
53719;BME280;39616;48.872;9.390;2024-03-02T05:32:01;97185.19;;;2.05;100.00
53719;BME280;39616;48.872;9.390;2024-03-02T05:34:31;97177.72;;;2.07;100.00
53719;BME280;39616;48.872;9.390;2024-03-02T05:37:04;97180.91;;;2.14;100.00
53719;BME280;39616;48.872;9.390;2024-03-02T05:39:35;97175.53;;;2.19;100.00
53719;BME280;39616;48.872;9.390;2024-03-02T05:42:05;97188.09;;;2.24;100.00
53719;BME280;39616;48.872;9.390;2024-03-02T05:44:36;97189.41;;;2.31;100.00
53719;BME280;39616;48.872;9.390;2024-03-02T05:47:06;97188.34;;;2.37;100.00
53719;BME280;39616;48.872;9.390;2024-03-02T05:49:38;97186.22;;;2.39;100.00
53719;BME280;39616;48.872;9.390;2024-03-02T05:52:09;97186.72;;;2.41;100.00
53719;BME280;39616;48.872;9.390;2024-03-02T05:54:39;97187.81;;;2.35;100.00
53719;BME280;39616;48.872;9.390;2024-03-02T05:57:09;97188.09;;;2.29;100.00
53719;BME280;39616;48.872;9.390;2024-03-02T05:59:58;97192.38;;;2.30;100.00
53719;BME280;39616;48.872;9.390;2024-03-02T06:02:29;97195.06;;;2.25;100.00
53719;BME280;39616;48.872;9.390;2024-03-02T06:04:59;97191.56;;;2.24;100.00
53719;BME280;39616;48.872;9.390;2024-03-02T06:07:29;97198.00;;;2.23;100.00
53719;BME280;39616;48.872;9.390;2024-03-02T06:10:00;97196.38;;;2.27;100.00
53719;BME280;39616;48.872;9.390;2024-03-02T06:12:31;97201.75;;;2.32;100.00
53719;BME280;39616;48.872;9.390;2024-03-02T06:15:03;97199.84;;;2.43;100.00
53719;BME280;39616;48.872;9.390;2024-03-02T06:17:35;97205.69;;;2.50;100.00
53719;BME280;39616;48.872;9.390;2024-03-02T06:20:06;97211.59;;;2.52;100.00
53719;BME280;39616;48.872;9.390;2024-03-02T06:22:38;97209.47;;;2.54;100.00
53719;BME280;39616;48.872;9.390;2024-03-02T06:25:08;97206.50;;;2.56;100.00
53719;BME280;39616;48.872;9.390;2024-03-02T06:27:39;97208.34;;;2.60;100.00
53719;BME280;39616;48.872;9.390;2024-03-02T06:30:09;97209.41;;;2.64;100.00
53719;BME280;39616;48.872;9.390;2024-03-02T06:32:40;97216.94;;;2.62;100.00
53719;BME280;39616;48.872;9.390;2024-03-02T06:35:10;97213.97;;;2.64;100.00
53719;BME280;39616;48.872;9.390;2024-03-02T06:37:42;97222.78;;;2.64;100.00
53719;BME280;39616;48.872;9.390;2024-03-02T06:40:13;97220.13;;;2.64;100.00
53719;BME280;39616;48.872;9.390;2024-03-02T06:42:43;97223.06;;;2.63;100.00
53719;BME280;39616;48.872;9.390;2024-03-02T06:45:13;97218.00;;;2.61;100.00
53719;BME280;39616;48.872;9.390;2024-03-02T06:47:43;97224.94;;;2.57;100.00
53719;BME280;39616;48.872;9.390;2024-03-02T06:50:14;97221.22;;;2.58;100.00
53719;BME280;39616;48.872;9.390;2024-03-02T06:52:44;97222.56;;;2.51;100.00
53719;BME280;39616;48.872;9.390;2024-03-02T06:55:14;97230.84;;;2.49;100.00
53719;BME280;39616;48.872;9.390;2024-03-02T06:57:45;97219.91;;;2.51;100.00
53719;BME280;39616;48.872;9.390;2024-03-02T07:00:15;97218.53;;;2.53;100.00
53719;BME280;39616;48.872;9.390;2024-03-02T07:02:47;97226.28;;;2.60;100.00
53719;BME280;39616;48.872;9.390;2024-03-02T07:05:18;97221.47;;;2.67;100.00
53719;BME280;39616;48.872;9.390;2024-03-02T07:07:48;97222.00;;;2.69;100.00
53719;BME280;39616;48.872;9.390;2024-03-02T07:10:19;97215.28;;;2.77;100.00
53719;BME280;39616;48.872;9.390;2024-03-02T07:12:49;97219.25;;;2.89;100.00
53719;BME280;39616;48.872;9.390;2024-03-02T07:15:19;97229.88;;;3.05;100.00
53719;BME280;39616;48.872;9.390;2024-03-02T07:17:58;97229.31;;;3.18;100.00
53719;BME280;39616;48.872;9.390;2024-03-02T07:20:28;97230.59;;;3.26;100.00
53719;BME280;39616;48.872;9.390;2024-03-02T07:22:59;97222.81;;;3.29;100.00
53719;BME280;39616;48.872;9.390;2024-03-02T07:25:29;97219.34;;;3.29;100.00
53719;BME280;39616;48.872;9.390;2024-03-02T07:27:59;97219.84;;;3.36;100.00
53719;BME280;39616;48.872;9.390;2024-03-02T07:30:30;97213.00;;;3.59;100.00
53719;BME280;39616;48.872;9.390;2024-03-02T07:33:00;97219.78;;;3.85;100.00
53719;BME280;39616;48.872;9.390;2024-03-02T07:35:30;97219.19;;;4.28;100.00
53719;BME280;39616;48.872;9.390;2024-03-02T07:38:01;97223.28;;;4.73;100.00
53719;BME280;39616;48.872;9.390;2024-03-02T07:40:32;97227.84;;;5.21;100.00
53719;BME280;39616;48.872;9.390;2024-03-02T07:43:02;97214.81;;;5.71;100.00
53719;BME280;39616;48.872;9.390;2024-03-02T07:45:32;97219.38;;;6.08;100.00
53719;BME280;39616;48.872;9.390;2024-03-02T07:48:03;97224.72;;;6.27;100.00
53719;BME280;39616;48.872;9.390;2024-03-02T07:50:36;97224.16;;;6.44;100.00
53719;BME280;39616;48.872;9.390;2024-03-02T07:53:07;97230.69;;;6.70;100.00
53719;BME280;39616;48.872;9.390;2024-03-02T07:55:38;97224.81;;;6.96;100.00
53719;BME280;39616;48.872;9.390;2024-03-02T07:58:11;97223.00;;;7.05;100.00
53719;BME280;39616;48.872;9.390;2024-03-02T08:00:41;97230.72;;;7.25;100.00
53719;BME280;39616;48.872;9.390;2024-03-02T08:03:12;97226.56;;;7.42;100.00
53719;BME280;39616;48.872;9.390;2024-03-02T08:05:44;97227.72;;;7.99;100.00
53719;BME280;39616;48.872;9.390;2024-03-02T08:08:14;97229.09;;;8.11;100.00
53719;BME280;39616;48.872;9.390;2024-03-02T08:10:44;97226.00;;;8.26;100.00
53719;BME280;39616;48.872;9.390;2024-03-02T08:13:15;97223.50;;;8.07;100.00
53719;BME280;39616;48.872;9.390;2024-03-02T08:15:45;97222.75;;;8.15;100.00
53719;BME280;39616;48.872;9.390;2024-03-02T08:18:15;97223.56;;;8.16;100.00
53719;BME280;39616;48.872;9.390;2024-03-02T08:20:45;97223.78;;;8.06;100.00
53719;BME280;39616;48.872;9.390;2024-03-02T08:23:17;97224.06;;;8.18;100.00
53719;BME280;39616;48.872;9.390;2024-03-02T08:25:47;97220.38;;;8.14;100.00
53719;BME280;39616;48.872;9.390;2024-03-02T08:28:18;97217.03;;;8.17;100.00
53719;BME280;39616;48.872;9.390;2024-03-02T08:30:48;97216.44;;;8.20;100.00
53719;BME280;39616;48.872;9.390;2024-03-02T08:33:18;97215.94;;;8.18;100.00
53719;BME280;39616;48.872;9.390;2024-03-02T08:35:48;97218.66;;;8.18;100.00
53719;BME280;39616;48.872;9.390;2024-03-02T08:38:19;97211.09;;;8.29;100.00
53719;BME280;39616;48.872;9.390;2024-03-02T08:40:49;97207.94;;;8.35;100.00
53719;BME280;39616;48.872;9.390;2024-03-02T08:43:20;97208.84;;;8.44;100.00
53719;BME280;39616;48.872;9.390;2024-03-02T08:45:50;97212.25;;;8.36;100.00
53719;BME280;39616;48.872;9.390;2024-03-02T08:48:21;97213.06;;;8.37;100.00
53719;BME280;39616;48.872;9.390;2024-03-02T08:50:51;97202.63;;;8.44;99.85
53719;BME280;39616;48.872;9.390;2024-03-02T08:53:21;97205.34;;;8.44;99.85
53719;BME280;39616;48.872;9.390;2024-03-02T08:55:52;97203.09;;;8.46;98.46
53719;BME280;39616;48.872;9.390;2024-03-02T08:58:22;97194.88;;;8.51;98.15
53719;BME280;39616;48.872;9.390;2024-03-02T09:00:52;97197.94;;;8.58;96.93
53719;BME280;39616;48.872;9.390;2024-03-02T09:03:23;97208.91;;;9.02;94.73
53719;BME280;39616;48.872;9.390;2024-03-02T09:05:53;97203.78;;;9.40;91.09
53719;BME280;39616;48.872;9.390;2024-03-02T09:08:23;97197.91;;;9.64;89.05
53719;BME280;39616;48.872;9.390;2024-03-02T09:10:54;97196.34;;;9.80;87.45
53719;BME280;39616;48.872;9.390;2024-03-02T09:13:25;97191.69;;;10.24;86.39
53719;BME280;39616;48.872;9.390;2024-03-02T09:15:55;97190.63;;;10.72;84.54
53719;BME280;39616;48.872;9.390;2024-03-02T09:18:25;97190.75;;;11.14;80.57
53719;BME280;39616;48.872;9.390;2024-03-02T09:20:55;97193.94;;;11.67;78.13
53719;BME280;39616;48.872;9.390;2024-03-02T09:23:26;97192.31;;;11.95;75.93
53719;BME280;39616;48.872;9.390;2024-03-02T09:25:56;97192.16;;;12.33;74.12
53719;BME280;39616;48.872;9.390;2024-03-02T09:28:26;97189.03;;;12.23;73.08
53719;BME280;39616;48.872;9.390;2024-03-02T09:30:57;97188.06;;;12.40;72.45
53719;BME280;39616;48.872;9.390;2024-03-02T09:33:27;97189.53;;;12.82;72.62
53719;BME280;39616;48.872;9.390;2024-03-02T09:35:57;97185.34;;;13.22;69.82
53719;BME280;39616;48.872;9.390;2024-03-02T09:38:28;97182.47;;;13.67;68.09
53719;BME280;39616;48.872;9.390;2024-03-02T09:40:59;97187.25;;;13.70;66.41
53719;BME280;39616;48.872;9.390;2024-03-02T09:43:30;97179.03;;;14.39;65.34
53719;BME280;39616;48.872;9.390;2024-03-02T09:46:00;97191.34;;;14.33;63.76
53719;BME280;39616;48.872;9.390;2024-03-02T09:48:31;97180.63;;;14.40;63.74
53719;BME280;39616;48.872;9.390;2024-03-02T09:51:01;97172.72;;;15.45;61.05
53719;BME280;39616;48.872;9.390;2024-03-02T09:53:34;97170.97;;;15.37;59.83
53719;BME280;39616;48.872;9.390;2024-03-02T09:56:04;97173.66;;;16.08;57.87
53719;BME280;39616;48.872;9.390;2024-03-02T09:58:34;97168.28;;;15.92;56.73
53719;BME280;39616;48.872;9.390;2024-03-02T10:01:06;97173.34;;;16.52;51.91
53719;BME280;39616;48.872;9.390;2024-03-02T10:03:36;97168.75;;;16.79;50.04
53719;BME280;39616;48.872;9.390;2024-03-02T10:08:51;97167.63;;;16.80;51.30
53719;BME280;39616;48.872;9.390;2024-03-02T10:14:12;97168.38;;;16.57;51.73
53719;BME280;39616;48.872;9.390;2024-03-02T10:16:44;97171.91;;;16.38;52.62
53719;BME280;39616;48.872;9.390;2024-03-02T10:21:50;97171.31;;;16.06;55.03
53719;BME280;39616;48.872;9.390;2024-03-02T10:24:22;97174.69;;;16.00;53.26
53719;BME280;39616;48.872;9.390;2024-03-02T10:26:52;97167.94;;;16.13;50.90
53719;BME280;39616;48.872;9.390;2024-03-02T10:29:23;97163.47;;;16.24;52.47
53719;BME280;39616;48.872;9.390;2024-03-02T10:31:53;97163.59;;;15.57;52.49
53719;BME280;39616;48.872;9.390;2024-03-02T10:34:24;97159.97;;;15.34;55.29
53719;BME280;39616;48.872;9.390;2024-03-02T10:36:54;97163.88;;;14.85;55.33
53719;BME280;39616;48.872;9.390;2024-03-02T10:39:25;97160.41;;;15.36;55.89
53719;BME280;39616;48.872;9.390;2024-03-02T10:41:56;97161.69;;;15.42;55.15
53719;BME280;39616;48.872;9.390;2024-03-02T10:44:27;97154.63;;;15.06;55.70
53719;BME280;39616;48.872;9.390;2024-03-02T10:47:02;97154.25;;;15.23;55.56
53719;BME280;39616;48.872;9.390;2024-03-02T10:49:33;97146.75;;;15.71;54.45
53719;BME280;39616;48.872;9.390;2024-03-02T10:52:04;97140.78;;;15.65;53.34
53719;BME280;39616;48.872;9.390;2024-03-02T10:54:34;97132.00;;;16.14;52.63
53719;BME280;39616;48.872;9.390;2024-03-02T10:57:10;97125.06;;;16.40;50.67
53719;BME280;39616;48.872;9.390;2024-03-02T10:59:52;97130.09;;;16.38;51.05
53719;BME280;39616;48.872;9.390;2024-03-02T11:02:23;97131.56;;;16.32;50.44
53719;BME280;39616;48.872;9.390;2024-03-02T11:04:55;97124.75;;;16.45;51.46
53719;BME280;39616;48.872;9.390;2024-03-02T11:07:27;97125.38;;;16.58;51.02
53719;BME280;39616;48.872;9.390;2024-03-02T11:09:59;97118.34;;;16.37;51.72
53719;BME280;39616;48.872;9.390;2024-03-02T11:13:00;97110.06;;;16.76;50.72
53719;BME280;39616;48.872;9.390;2024-03-02T11:15:34;97112.78;;;16.53;50.98
53719;BME280;39616;48.872;9.390;2024-03-02T11:18:06;97123.91;;;16.64;51.01
53719;BME280;39616;48.872;9.390;2024-03-02T11:20:39;97115.22;;;16.81;49.95
53719;BME280;39616;48.872;9.390;2024-03-02T11:23:10;97107.41;;;16.80;50.24
53719;BME280;39616;48.872;9.390;2024-03-02T11:25:40;97104.41;;;16.42;50.67
53719;BME280;39616;48.872;9.390;2024-03-02T11:28:11;97100.50;;;16.43;51.26
53719;BME280;39616;48.872;9.390;2024-03-02T11:33:12;97097.38;;;15.80;51.87
53719;BME280;39616;48.872;9.390;2024-03-02T11:35:44;97092.84;;;15.52;52.90
53719;BME280;39616;48.872;9.390;2024-03-02T11:38:18;97087.16;;;15.77;52.74
53719;BME280;39616;48.872;9.390;2024-03-02T11:40:49;97082.16;;;15.28;52.86
53719;BME280;39616;48.872;9.390;2024-03-02T11:43:20;97081.13;;;15.32;53.52
53719;BME280;39616;48.872;9.390;2024-03-02T11:45:57;97072.50;;;15.50;53.22
53719;BME280;39616;48.872;9.390;2024-03-02T11:48:29;97060.59;;;15.03;53.65
53719;BME280;39616;48.872;9.390;2024-03-02T11:51:00;97061.56;;;15.30;54.41
53719;BME280;39616;48.872;9.390;2024-03-02T11:53:31;97058.97;;;15.73;52.81
53719;BME280;39616;48.872;9.390;2024-03-02T11:56:02;97051.81;;;15.68;52.46
53719;BME280;39616;48.872;9.390;2024-03-02T11:58:35;97057.72;;;15.70;52.06
53719;BME280;39616;48.872;9.390;2024-03-02T12:01:06;97045.22;;;15.69;51.43
53719;BME280;39616;48.872;9.390;2024-03-02T12:03:37;97042.31;;;15.42;52.68
53719;BME280;39616;48.872;9.390;2024-03-02T12:06:08;97033.22;;;15.74;52.27
53719;BME280;39616;48.872;9.390;2024-03-02T12:08:38;97026.09;;;15.69;51.17
53719;BME280;39616;48.872;9.390;2024-03-02T12:11:13;97024.50;;;15.68;50.90
53719;BME280;39616;48.872;9.390;2024-03-02T12:13:52;97027.38;;;15.75;51.37
53719;BME280;39616;48.872;9.390;2024-03-02T12:16:25;97019.31;;;15.82;51.40
53719;BME280;39616;48.872;9.390;2024-03-02T12:18:55;97018.00;;;15.57;50.61
53719;BME280;39616;48.872;9.390;2024-03-02T12:21:26;97011.34;;;15.74;50.71
53719;BME280;39616;48.872;9.390;2024-03-02T12:23:56;97014.47;;;15.76;51.08
53719;BME280;39616;48.872;9.390;2024-03-02T12:26:27;97006.28;;;15.76;50.67
53719;BME280;39616;48.872;9.390;2024-03-02T12:28:58;97007.09;;;15.76;51.48
53719;BME280;39616;48.872;9.390;2024-03-02T12:31:28;97004.25;;;15.69;51.34
53719;BME280;39616;48.872;9.390;2024-03-02T12:33:58;96997.16;;;15.68;51.77
53719;BME280;39616;48.872;9.390;2024-03-02T12:36:29;97004.41;;;15.60;51.70
53719;BME280;39616;48.872;9.390;2024-03-02T12:38:59;96995.78;;;15.78;52.38
53719;BME280;39616;48.872;9.390;2024-03-02T12:41:29;97001.13;;;15.70;51.55
53719;BME280;39616;48.872;9.390;2024-03-02T12:44:00;96993.44;;;15.76;51.50
53719;BME280;39616;48.872;9.390;2024-03-02T12:46:31;96989.38;;;15.89;51.14
53719;BME280;39616;48.872;9.390;2024-03-02T12:49:08;96981.91;;;16.09;51.27
53719;BME280;39616;48.872;9.390;2024-03-02T12:51:40;96976.44;;;16.09;50.78
53719;BME280;39616;48.872;9.390;2024-03-02T12:54:11;96977.75;;;16.19;50.36
53719;BME280;39616;48.872;9.390;2024-03-02T12:56:41;96981.22;;;16.16;50.21
53719;BME280;39616;48.872;9.390;2024-03-02T12:59:18;96977.16;;;16.29;49.42
53719;BME280;39616;48.872;9.390;2024-03-02T13:01:52;96979.56;;;16.34;48.79
53719;BME280;39616;48.872;9.390;2024-03-02T13:04:24;96972.06;;;16.05;48.40
53719;BME280;39616;48.872;9.390;2024-03-02T13:06:55;96969.19;;;15.98;48.74
53719;BME280;39616;48.872;9.390;2024-03-02T13:09:29;96973.09;;;15.97;47.72
53719;BME280;39616;48.872;9.390;2024-03-02T13:12:00;96970.59;;;15.88;46.99
53719;BME280;39616;48.872;9.390;2024-03-02T13:14:34;96968.38;;;16.16;47.06
53719;BME280;39616;48.872;9.390;2024-03-02T13:17:05;96969.94;;;16.17;47.92
53719;BME280;39616;48.872;9.390;2024-03-02T13:19:37;96965.81;;;16.04;47.05
53719;BME280;39616;48.872;9.390;2024-03-02T13:22:08;96965.31;;;15.99;47.37
53719;BME280;39616;48.872;9.390;2024-03-02T13:24:38;96967.63;;;15.97;46.57
53719;BME280;39616;48.872;9.390;2024-03-02T13:27:08;96955.09;;;16.18;46.54
53719;BME280;39616;48.872;9.390;2024-03-02T13:29:39;96958.81;;;15.84;45.43
53719;BME280;39616;48.872;9.390;2024-03-02T13:32:09;96958.81;;;16.07;44.89